createdAt,value
2022-07-31T05:02:27.464Z,15.30
2022-07-31T05:04:57.246Z,15.41
2022-07-31T05:07:25.885Z,15.52
2022-07-31T05:09:56.312Z,15.63
2022-07-31T05:12:24.066Z,15.78
2022-07-31T05:14:51.838Z,15.91
2022-07-31T05:17:19.604Z,15.98
2022-07-31T05:19:48.793Z,16.10
2022-07-31T05:22:16.550Z,16.19
2022-07-31T05:24:46.601Z,16.24
2022-07-31T05:27:14.341Z,16.32
2022-07-31T05:29:42.092Z,16.34
2022-07-31T05:32:09.952Z,16.41
2022-07-31T05:34:37.754Z,16.46
2022-07-31T05:37:06.867Z,16.53
2022-07-31T05:39:34.595Z,16.60
2022-07-31T05:42:02.649Z,16.72
2022-07-31T05:44:30.671Z,16.77
2022-07-31T05:49:28.911Z,17.05
2022-07-31T05:51:56.810Z,17.14
2022-07-31T05:54:25.978Z,17.31
2022-07-31T05:56:53.708Z,17.38
2022-07-31T05:59:21.455Z,17.55
2022-07-31T06:01:49.980Z,17.65
2022-07-31T06:04:17.835Z,17.83
2022-07-31T06:06:45.561Z,17.92
2022-07-31T06:09:13.342Z,18.03
2022-07-31T06:11:42.465Z,18.06
2022-07-31T06:14:10.507Z,18.19
2022-07-31T06:16:38.283Z,18.30
2022-07-31T06:19:06.016Z,18.41
2022-07-31T06:21:33.796Z,18.47
2022-07-31T06:24:01.543Z,18.46
2022-07-31T06:26:30.185Z,18.54
2022-07-31T06:28:59.298Z,18.65
2022-07-31T06:31:27.023Z,18.73
2022-07-31T06:33:54.915Z,18.73
2022-07-31T06:36:22.689Z,18.77
2022-07-31T06:38:50.437Z,18.79
2022-07-31T06:41:32.075Z,18.83
2022-07-31T06:44:01.188Z,18.93
2022-07-31T06:46:29.365Z,19.00
2022-07-31T06:48:57.148Z,19.05
2022-07-31T06:51:30.944Z,19.16
2022-07-31T06:54:00.011Z,19.26
2022-07-31T06:56:27.761Z,19.30
2022-07-31T06:58:55.690Z,19.35
2022-07-31T07:01:24.851Z,19.35
2022-07-31T07:03:52.737Z,19.30
2022-07-31T07:06:20.653Z,19.22
2022-07-31T07:08:48.449Z,19.30
2022-07-31T07:11:16.487Z,19.42
2022-07-31T07:13:46.400Z,19.41
2022-07-31T07:16:14.988Z,19.39
2022-07-31T07:18:44.215Z,19.51
2022-07-31T07:21:12.305Z,19.39
2022-07-31T07:23:40.433Z,19.42
2022-07-31T07:26:08.542Z,19.50
2022-07-31T07:28:36.755Z,19.53
2022-07-31T07:31:04.981Z,19.60
2022-07-31T07:33:41.418Z,19.76
2022-07-31T07:36:23.319Z,19.90
2022-07-31T07:38:53.596Z,19.99
2022-07-31T07:41:23.350Z,20.05
2022-07-31T07:43:52.498Z,20.08
2022-07-31T07:46:21.331Z,20.02
2022-07-31T07:48:50.697Z,19.92
2022-07-31T07:51:20.227Z,20.06
2022-07-31T07:53:48.198Z,20.19
2022-07-31T07:56:15.980Z,20.34
2022-07-31T07:58:45.953Z,20.32
2022-07-31T08:01:14.040Z,20.42
2022-07-31T08:03:48.169Z,20.43
2022-07-31T08:06:21.074Z,20.49
2022-07-31T08:08:48.846Z,20.57
2022-07-31T08:11:17.823Z,20.39
2022-07-31T08:13:50.225Z,20.63
2022-07-31T08:16:18.724Z,20.78
2022-07-31T08:18:46.598Z,21.02
2022-07-31T08:21:14.396Z,21.19
2022-07-31T08:23:43.513Z,21.12
2022-07-31T08:26:13.032Z,21.08
2022-07-31T08:28:50.651Z,21.18
2022-07-31T08:31:19.554Z,21.27
2022-07-31T08:33:47.460Z,21.13
2022-07-31T08:36:15.290Z,21.19
2022-07-31T08:38:44.411Z,21.33
2022-07-31T08:41:15.779Z,21.54
2022-07-31T08:44:02.896Z,21.40
2022-07-31T08:46:33.457Z,21.46
2022-07-31T08:49:03.803Z,21.48
2022-07-31T08:51:51.110Z,21.47
2022-07-31T08:54:23.834Z,21.38
2022-07-31T08:56:53.017Z,21.62
2022-07-31T08:59:22.049Z,21.83
2022-07-31T09:01:50.350Z,22.02
2022-07-31T09:04:18.827Z,22.18
2022-07-31T09:06:46.616Z,22.05
2022-07-31T09:09:16.634Z,22.05
2022-07-31T09:11:49.441Z,22.30
2022-07-31T09:14:26.322Z,22.58
2022-07-31T09:16:54.648Z,22.69
2022-07-31T09:19:51.786Z,22.52
2022-07-31T09:22:20.792Z,22.54
2022-07-31T09:24:48.633Z,22.61
2022-07-31T09:27:18.395Z,22.32
2022-07-31T09:29:49.238Z,22.53
2022-07-31T09:32:18.987Z,22.76
2022-07-31T09:34:48.351Z,22.97
2022-07-31T09:37:17.598Z,23.14
2022-07-31T09:39:51.901Z,23.32
2022-07-31T09:42:22.954Z,23.58
2022-07-31T09:44:52.014Z,23.89
2022-07-31T09:47:24.455Z,23.99
2022-07-31T09:49:56.623Z,24.08
2022-07-31T09:52:24.343Z,24.19
2022-07-31T09:55:01.920Z,24.21
2022-07-31T09:57:31.028Z,24.33
2022-07-31T09:59:58.772Z,24.40
2022-07-31T10:02:27.298Z,24.44
2022-07-31T10:04:58.952Z,24.57
2022-07-31T10:07:32.097Z,24.39
2022-07-31T10:10:02.060Z,24.56
2022-07-31T10:12:33.174Z,24.45
2022-07-31T10:15:06.687Z,24.62
2022-07-31T10:17:39.724Z,24.82
2022-07-31T10:20:09.887Z,25.14
2022-07-31T10:22:47.063Z,24.92
2022-07-31T10:25:20.732Z,25.05
2022-07-31T10:27:50.019Z,25.35
2022-07-31T10:30:18.276Z,25.27
2022-07-31T10:32:46.281Z,25.28
2022-07-31T10:35:14.387Z,25.35
2022-07-31T10:37:49.778Z,25.21
2022-07-31T10:40:25.040Z,25.33
2022-07-31T10:43:03.225Z,25.47
2022-07-31T10:45:31.958Z,25.56
2022-07-31T10:48:03.065Z,25.62
2022-07-31T10:50:32.416Z,25.89
2022-07-31T10:53:10.895Z,25.58
2022-07-31T10:55:38.868Z,25.79
2022-07-31T10:58:13.925Z,25.80
2022-07-31T11:00:41.856Z,25.71
2022-07-31T11:03:16.736Z,25.73
2022-07-31T11:06:02.522Z,25.93
2022-07-31T11:08:42.741Z,26.21
2022-07-31T11:11:11.538Z,25.93
2022-07-31T11:13:51.761Z,25.65
2022-07-31T11:16:20.734Z,25.73
2022-07-31T11:18:58.615Z,25.90
2022-07-31T11:21:38.933Z,26.09
2022-07-31T11:24:15.880Z,26.28
2022-07-31T11:26:49.029Z,26.49
2022-07-31T11:30:01.280Z,26.67
2022-07-31T11:32:16.641Z,26.61
2022-07-31T11:34:49.542Z,26.61
2022-07-31T11:37:19.320Z,26.61
2022-07-31T11:39:51.629Z,26.19
2022-07-31T11:42:27.606Z,26.28
2022-07-31T11:45:11.175Z,25.97
2022-07-31T11:48:12.763Z,25.39
2022-07-31T11:50:41.341Z,25.45
2022-07-31T11:53:09.098Z,25.87
2022-07-31T11:55:46.370Z,25.67
2022-07-31T11:58:15.160Z,25.40
2022-07-31T12:00:49.564Z,25.83
2022-07-31T12:03:18.772Z,25.63
2022-07-31T12:05:48.149Z,25.71
2022-07-31T12:08:16.762Z,25.76
2022-07-31T12:10:46.405Z,25.84
2022-07-31T12:13:16.297Z,25.77
2022-07-31T12:15:56.787Z,25.46
2022-07-31T12:18:26.339Z,25.55
2022-07-31T12:20:55.635Z,25.60
2022-07-31T12:23:38.561Z,25.53
2022-07-31T12:26:09.559Z,26.04
2022-07-31T12:28:37.575Z,26.39
2022-07-31T12:31:10.153Z,26.59
2022-07-31T12:33:41.911Z,26.80
2022-07-31T12:36:14.274Z,26.65
2022-07-31T12:38:48.470Z,26.81
2022-07-31T12:41:17.579Z,26.83
2022-07-31T12:43:51.988Z,26.64
2022-07-31T12:46:23.243Z,26.60
2022-07-31T12:49:01.683Z,26.45
2022-07-31T12:51:45.637Z,26.44
2022-07-31T12:54:15.735Z,26.54
2022-07-31T12:56:44.162Z,26.73
2022-07-31T12:59:12.508Z,26.70
2022-07-31T13:01:41.962Z,26.76
2022-07-31T13:04:19.194Z,26.76
2022-07-31T13:06:51.362Z,26.76
2022-07-31T13:09:20.109Z,26.32
2022-07-31T13:11:49.833Z,26.45
2022-07-31T13:14:20.366Z,26.25
2022-07-31T13:16:51.686Z,25.70
2022-07-31T13:19:19.843Z,25.66
2022-07-31T13:21:50.190Z,25.77
2022-07-31T13:24:19.569Z,26.27
2022-07-31T13:26:47.435Z,26.60
2022-07-31T13:29:15.219Z,26.81
2022-07-31T13:31:43.074Z,26.88
2022-07-31T13:34:13.133Z,27.09
2022-07-31T13:36:40.883Z,26.96
2022-07-31T13:39:09.081Z,26.77
2022-07-31T13:41:39.166Z,26.76
2022-07-31T13:44:07.413Z,26.82
2022-07-31T13:46:35.523Z,26.73
2022-07-31T13:49:08.067Z,26.63
2022-07-31T13:51:38.013Z,26.42
2022-07-31T13:54:06.059Z,26.43
2022-07-31T13:56:42.056Z,26.56
2022-07-31T13:59:11.781Z,26.65
2022-07-31T14:02:03.820Z,26.46
2022-07-31T14:04:30.884Z,26.34
2022-07-31T14:07:04.172Z,26.59
2022-07-31T14:09:34.056Z,26.71
2022-07-31T14:12:04.382Z,26.83
2022-07-31T14:14:33.950Z,27.13
2022-07-31T14:17:01.706Z,27.25
2022-07-31T14:19:29.440Z,27.38
2022-07-31T14:21:57.981Z,26.89
2022-07-31T14:24:27.556Z,27.03
2022-07-31T14:26:55.987Z,27.19
2022-07-31T14:29:23.951Z,27.42
2022-07-31T14:31:51.720Z,27.58
2022-07-31T14:34:19.698Z,27.53
2022-07-31T14:36:47.511Z,27.33
2022-07-31T14:39:15.271Z,27.02
2022-07-31T14:41:44.905Z,27.08
2022-07-31T14:44:17.321Z,27.02
2022-07-31T14:46:50.063Z,26.54
2022-07-31T14:49:17.952Z,26.40
2022-07-31T14:51:46.342Z,26.44
2022-07-31T14:54:14.107Z,26.40
2022-07-31T14:59:31.331Z,26.43
2022-07-31T15:01:59.895Z,26.53
2022-07-31T15:04:27.606Z,26.48
2022-07-31T15:07:07.670Z,26.06
2022-07-31T15:09:43.268Z,25.98
2022-07-31T15:12:12.264Z,25.98
2022-07-31T15:14:41.417Z,26.10
2022-07-31T15:17:09.216Z,25.92
2022-07-31T15:19:37.019Z,25.93
2022-07-31T15:22:10.902Z,25.95
2022-07-31T15:24:48.566Z,26.07
2022-07-31T15:27:17.362Z,26.01
2022-07-31T15:30:00.615Z,26.21
2022-07-31T15:32:34.196Z,26.14
2022-07-31T15:35:01.968Z,26.19
2022-07-31T15:37:30.202Z,26.06
2022-07-31T15:40:02.981Z,25.96
2022-07-31T15:42:31.899Z,26.27
2022-07-31T15:45:01.277Z,26.23
2022-07-31T15:47:29.042Z,26.12
2022-07-31T15:49:56.911Z,26.16
2022-07-31T15:52:24.687Z,26.02
2022-07-31T15:54:52.986Z,26.15
2022-07-31T15:57:21.109Z,25.89
2022-07-31T15:59:49.779Z,25.73
2022-07-31T16:02:18.966Z,25.67
2022-07-31T16:04:52.742Z,25.54
2022-07-31T16:08:28.540Z,25.61
2022-07-31T16:10:16.149Z,25.55
2022-07-31T16:12:45.351Z,25.64
2022-07-31T16:15:13.349Z,25.62
2022-07-31T16:17:43.049Z,25.66
2022-07-31T16:20:13.252Z,25.75
2022-07-31T16:22:58.043Z,25.78
2022-07-31T16:25:27.399Z,25.70
2022-07-31T16:27:55.434Z,25.67
2022-07-31T16:30:23.756Z,25.71
2022-07-31T16:32:53.156Z,25.81
2022-07-31T16:35:20.981Z,25.91
2022-07-31T16:37:51.039Z,25.80
2022-07-31T16:40:29.808Z,25.86
2022-07-31T16:43:00.663Z,25.91
2022-07-31T16:45:28.804Z,25.86
2022-07-31T16:47:58.098Z,25.94
2022-07-31T16:50:26.088Z,25.88
2022-07-31T16:52:55.149Z,26.14
2022-07-31T16:55:46.209Z,25.91
2022-07-31T16:58:12.369Z,26.00
2022-07-31T17:00:40.600Z,26.06
2022-07-31T17:03:58.559Z,25.98
2022-07-31T17:05:57.779Z,26.22
2022-07-31T17:08:25.623Z,26.28
2022-07-31T17:10:54.742Z,26.42
2022-07-31T17:13:23.347Z,26.17
2022-07-31T17:15:51.178Z,26.13
2022-07-31T17:18:24.946Z,25.99
2022-07-31T17:20:53.259Z,25.94
2022-07-31T17:23:42.998Z,25.84
2022-07-31T17:26:21.591Z,25.73
2022-07-31T17:28:50.781Z,25.63
2022-07-31T17:31:18.954Z,25.58
2022-07-31T17:33:59.554Z,25.53
2022-07-31T17:36:29.112Z,25.44
2022-07-31T17:38:56.944Z,25.38
2022-07-31T17:41:25.889Z,25.36
2022-07-31T17:43:54.561Z,25.32
2022-07-31T17:46:34.540Z,25.26
2022-07-31T17:49:08.194Z,25.19
2022-07-31T17:51:36.399Z,25.16
2022-07-31T17:54:04.459Z,25.10
2022-07-31T17:56:32.259Z,25.03
2022-07-31T17:59:04.523Z,25.03
2022-07-31T18:01:33.538Z,24.98
2022-07-31T18:04:01.681Z,24.98
2022-07-31T18:06:30.789Z,24.92
2022-07-31T18:08:58.988Z,24.90
2022-07-31T18:11:27.175Z,24.84
2022-07-31T18:13:55.513Z,24.81
2022-07-31T18:16:28.688Z,24.68
2022-07-31T18:18:56.442Z,24.61
2022-07-31T18:21:24.210Z,24.49
2022-07-31T18:23:53.307Z,24.43
2022-07-31T18:26:22.490Z,24.38
2022-07-31T18:28:50.298Z,24.35
2022-07-31T18:31:32.140Z,24.27
2022-07-31T18:34:06.710Z,24.14
2022-07-31T18:36:37.605Z,24.11
2022-07-31T18:39:07.714Z,23.99
2022-07-31T18:41:35.527Z,23.80
2022-07-31T18:44:03.258Z,23.75
2022-07-31T18:46:32.175Z,23.60
2022-07-31T18:49:00.468Z,23.46
2022-07-31T18:51:30.113Z,23.32
2022-07-31T18:53:58.641Z,23.19
2022-07-31T18:56:27.876Z,23.11
2022-07-31T18:58:55.812Z,22.91
2022-07-31T19:01:24.445Z,22.71
2022-07-31T19:03:52.829Z,22.53
2022-07-31T19:06:20.706Z,22.40
2022-07-31T19:08:49.647Z,22.32
2022-07-31T19:11:17.542Z,22.23
2022-07-31T19:13:46.748Z,22.05
2022-07-31T19:16:15.930Z,21.93
2022-07-31T19:18:49.320Z,21.76
2022-07-31T19:21:41.167Z,21.69
2022-07-31T19:24:07.925Z,21.64
2022-07-31T19:26:35.832Z,21.48
2022-07-31T19:29:05.093Z,21.40
2022-07-31T19:31:33.030Z,21.30
2022-07-31T19:34:00.922Z,21.22
2022-07-31T19:36:29.055Z,21.14
2022-07-31T19:38:57.592Z,21.08
2022-07-31T19:41:25.419Z,21.05
2022-07-31T19:43:53.278Z,20.99
2022-07-31T19:46:22.589Z,20.91
2022-07-31T19:48:50.446Z,20.92
2022-07-31T19:51:18.668Z,20.87
2022-07-31T19:53:46.995Z,20.84
2022-07-31T19:56:20.532Z,20.81
2022-07-31T19:58:49.297Z,20.79
2022-07-31T20:01:20.077Z,20.77
2022-07-31T20:03:50.051Z,20.71
2022-07-31T20:06:18.029Z,20.68
2022-07-31T20:08:46.042Z,20.66
2022-07-31T20:11:14.060Z,20.57
2022-07-31T20:13:42.165Z,20.45
2022-07-31T20:16:10.517Z,20.40
2022-07-31T20:18:38.574Z,20.33
2022-07-31T20:21:09.683Z,20.32
2022-07-31T20:23:38.981Z,20.40
2022-07-31T20:26:07.316Z,20.54
2022-07-31T20:28:35.664Z,20.69
2022-07-31T20:31:03.573Z,20.81
2022-07-31T20:33:31.593Z,20.89
2022-07-31T20:35:59.520Z,20.93
2022-07-31T20:38:28.674Z,20.96
2022-07-31T20:40:56.712Z,20.98
2022-07-31T20:43:26.038Z,21.02
2022-07-31T20:45:57.285Z,21.12
2022-07-31T20:48:31.254Z,21.10
2022-07-31T20:51:00.030Z,21.22
2022-07-31T20:53:30.125Z,21.29
2022-07-31T20:55:58.805Z,21.25
2022-07-31T20:58:28.299Z,21.33
2022-07-31T21:00:56.125Z,21.28
2022-07-31T21:03:23.992Z,21.23
2022-07-31T21:05:51.873Z,21.23
2022-07-31T21:08:19.704Z,21.29
2022-07-31T21:13:16.629Z,21.32
2022-07-31T21:15:45.501Z,21.24
2022-07-31T21:18:14.144Z,21.31
2022-07-31T21:20:52.078Z,21.31
2022-07-31T21:23:22.825Z,21.36
2022-07-31T21:25:52.798Z,21.33
2022-07-31T21:28:20.821Z,21.31
2022-07-31T21:30:49.069Z,21.33
2022-07-31T21:33:17.904Z,21.32
2022-07-31T21:35:46.836Z,21.29
2022-07-31T21:40:44.635Z,21.22
2022-07-31T21:43:16.598Z,21.19
2022-07-31T21:45:55.622Z,21.18
2022-07-31T21:48:27.262Z,21.12
2022-07-31T21:50:56.222Z,21.11
2022-07-31T21:53:25.202Z,21.11
2022-07-31T21:55:53.175Z,21.08
2022-07-31T21:58:22.267Z,21.07
2022-07-31T22:00:50.058Z,21.04
2022-07-31T22:03:17.881Z,21.03
2022-07-31T22:06:03.197Z,20.97
2022-07-31T22:08:30.929Z,20.95
2022-07-31T22:10:58.752Z,20.90
2022-07-31T22:13:27.891Z,20.89
2022-07-31T22:15:59.891Z,20.88
2022-07-31T22:18:28.823Z,20.84
2022-07-31T22:20:57.272Z,20.82
2022-07-31T22:23:25.338Z,20.80
2022-07-31T22:25:53.435Z,20.80
2022-07-31T22:28:23.152Z,20.78
2022-07-31T22:30:53.113Z,20.74
2022-07-31T22:33:21.399Z,20.73
2022-07-31T22:35:58.522Z,20.74
2022-07-31T22:38:29.773Z,20.71
2022-07-31T22:40:57.921Z,20.69
2022-07-31T22:44:10.669Z,20.68
2022-07-31T22:46:16.076Z,20.64
2022-07-31T22:48:45.921Z,20.61
2022-07-31T22:51:14.575Z,20.57
2022-07-31T22:53:43.385Z,20.54
2022-07-31T22:56:11.201Z,20.50
2022-07-31T22:58:39.142Z,20.48
